createdAt,value
2023-05-24T00:00:50.692Z,319.91
2023-05-24T00:01:50.674Z,321.48
2023-05-24T00:02:50.770Z,321.48
2023-05-24T00:03:50.810Z,325.30
2023-05-24T00:04:50.678Z,322.11
2023-05-24T00:05:50.620Z,324.34
2023-05-24T00:06:50.609Z,327.90
2023-05-24T00:07:50.592Z,327.90
2023-05-24T00:08:50.567Z,321.79
2023-05-24T00:09:50.585Z,327.25
2023-05-24T00:10:50.568Z,326.92
2023-05-24T00:11:50.545Z,331.21
2023-05-24T00:12:50.535Z,330.55
2023-05-24T00:13:50.533Z,326.27
2023-05-24T00:14:50.507Z,330.55
2023-05-24T00:15:50.499Z,324.98
2023-05-24T00:16:50.542Z,327.25
2023-05-24T00:17:50.505Z,330.88
2023-05-24T00:18:50.472Z,329.22
2023-05-24T00:19:50.474Z,331.88
2023-05-24T00:20:50.540Z,331.88
2023-05-24T00:21:50.400Z,329.22
2023-05-24T00:22:50.392Z,330.21
2023-05-24T00:23:50.408Z,328.89
2023-05-24T00:24:50.357Z,336.65
2023-05-24T00:25:50.378Z,336.65
2023-05-24T00:26:50.338Z,333.23
2023-05-24T00:27:50.327Z,331.21
2023-05-24T00:28:50.313Z,332.89
2023-05-24T00:29:50.313Z,333.23
2023-05-24T00:30:50.279Z,331.88
2023-05-24T00:31:50.313Z,338.73
2023-05-24T00:32:50.315Z,342.63
2023-05-24T00:33:50.263Z,341.56
2023-05-24T00:34:50.216Z,341.56
2023-05-24T00:35:50.237Z,334.93
2023-05-24T00:36:50.207Z,335.96
2023-05-24T00:37:50.207Z,338.39
2023-05-24T00:38:50.166Z,339.44
2023-05-24T00:39:50.190Z,340.49
2023-05-24T00:40:50.141Z,335.96
2023-05-24T00:41:50.126Z,333.91
2023-05-24T00:42:50.148Z,341.91
2023-05-24T00:43:50.100Z,335.96
2023-05-24T00:44:50.111Z,336.65
2023-05-24T00:45:50.097Z,336.65
2023-05-24T00:46:50.065Z,335.96
2023-05-24T00:47:50.100Z,335.62
2023-05-24T00:48:50.033Z,342.63
2023-05-24T00:49:50.027Z,337.00
2023-05-24T00:50:50.009Z,339.08
2023-05-24T00:51:50.020Z,336.65
2023-05-24T00:52:49.985Z,345.15
2023-05-24T00:53:49.966Z,344.79
2023-05-24T00:54:49.960Z,339.08
2023-05-24T00:55:49.932Z,339.08
2023-05-24T00:56:49.951Z,337.00
2023-05-24T00:57:49.910Z,338.73
2023-05-24T00:58:49.909Z,341.20
2023-05-24T00:59:49.885Z,341.56
2023-05-24T01:00:49.884Z,339.79
2023-05-24T01:01:49.947Z,342.98
2023-05-24T01:02:49.934Z,342.63
2023-05-24T01:03:49.911Z,342.98
2023-05-24T01:04:49.838Z,344.42
2023-05-24T01:05:49.826Z,344.79
2023-05-24T01:06:49.809Z,344.79
2023-05-24T01:07:49.773Z,345.88
2023-05-24T01:08:49.784Z,345.15
2023-05-24T01:09:49.752Z,346.24
2023-05-24T01:10:49.762Z,346.24
2023-05-24T01:11:49.736Z,346.61
2023-05-24T01:12:49.720Z,345.88
2023-05-24T01:13:49.690Z,347.71
2023-05-24T01:14:49.705Z,348.08
2023-05-24T01:15:49.740Z,348.08
2023-05-24T01:16:49.659Z,351.06
2023-05-24T01:17:49.687Z,350.31
2023-05-24T01:18:49.650Z,349.19
2023-05-24T01:19:49.742Z,352.19
2023-05-24T01:20:49.779Z,352.19
2023-05-24T01:21:49.616Z,350.31
2023-05-24T01:22:49.601Z,351.81
2023-05-24T01:23:49.575Z,352.19
2023-05-24T01:24:49.556Z,350.68
2023-05-24T01:25:49.573Z,353.71
2023-05-24T01:26:49.522Z,351.06
2023-05-24T01:27:49.500Z,354.47
2023-05-24T01:28:49.489Z,353.33
2023-05-24T01:29:49.494Z,352.95
2023-05-24T01:30:49.503Z,354.09
2023-05-24T01:31:49.481Z,353.33
2023-05-24T01:32:49.479Z,354.85
2023-05-24T01:33:49.435Z,354.85
2023-05-24T01:34:49.441Z,356.78
2023-05-24T01:35:49.419Z,352.57
2023-05-24T01:36:49.388Z,356.40
2023-05-24T01:37:49.386Z,356.40
2023-05-24T01:38:49.371Z,356.01
2023-05-24T01:39:49.384Z,354.09
2023-05-24T01:40:49.368Z,357.56
2023-05-24T01:41:49.326Z,357.56
2023-05-24T01:42:49.335Z,357.56
2023-05-24T01:43:49.298Z,355.24
2023-05-24T01:44:49.314Z,356.40
2023-05-24T01:45:49.274Z,357.95
2023-05-24T01:46:49.300Z,355.62
2023-05-24T01:47:49.292Z,354.47
2023-05-24T01:48:49.226Z,357.17
2023-05-24T01:49:49.282Z,359.91
2023-05-24T01:50:49.213Z,355.24
2023-05-24T01:51:49.196Z,355.62
2023-05-24T01:52:48.678Z,359.13
2023-05-24T01:53:49.148Z,355.24
2023-05-24T01:54:49.166Z,357.17
2023-05-24T01:55:49.131Z,358.34
2023-05-24T01:56:49.128Z,358.34
2023-05-24T01:57:49.105Z,357.95
2023-05-24T01:58:49.098Z,358.34
2023-05-24T01:59:47.919Z,357.17
2023-05-24T02:00:49.093Z,357.95
2023-05-24T02:01:49.080Z,358.34
2023-05-24T02:02:49.155Z,358.73
2023-05-24T02:03:49.049Z,359.13
2023-05-24T02:04:49.037Z,359.13
2023-05-24T02:05:49.013Z,360.70
2023-05-24T02:06:48.993Z,360.31
2023-05-24T02:07:48.967Z,361.50
2023-05-24T02:08:48.966Z,361.10
2023-05-24T02:09:48.981Z,362.30
2023-05-24T02:10:48.938Z,361.90
2023-05-24T02:11:48.965Z,363.50
2023-05-24T02:12:48.902Z,364.31
2023-05-24T02:13:48.908Z,364.31
2023-05-24T02:14:48.893Z,365.53
2023-05-24T02:15:48.877Z,364.31
2023-05-24T02:16:48.926Z,365.93
2023-05-24T02:17:48.913Z,367.99
2023-05-24T02:18:48.842Z,368.40
2023-05-24T02:19:48.844Z,368.81
2023-05-24T02:20:48.822Z,370.90
2023-05-24T02:21:48.791Z,369.64
2023-05-24T02:22:48.792Z,371.32
2023-05-24T02:23:48.771Z,373.01
2023-05-24T02:24:48.756Z,374.28
2023-05-24T02:25:48.732Z,374.28
2023-05-24T02:26:48.728Z,374.28
2023-05-24T02:27:48.740Z,373.86
2023-05-24T02:28:47.445Z,374.28
2023-05-24T02:29:48.691Z,376.00
2023-05-24T02:30:48.721Z,376.86
2023-05-24T02:31:48.646Z,375.57
2023-05-24T02:32:48.731Z,374.71
2023-05-24T02:33:48.644Z,373.86
2023-05-24T02:34:48.626Z,374.71
2023-05-24T02:35:48.628Z,376.86
2023-05-24T02:36:48.589Z,376.00
2023-05-24T02:37:48.587Z,376.00
2023-05-24T02:38:48.574Z,375.57
2023-05-24T02:39:48.540Z,376.43
2023-05-24T02:40:48.539Z,376.43
2023-05-24T02:41:48.520Z,376.00
2023-05-24T02:42:48.518Z,376.86
2023-05-24T02:43:48.573Z,376.00
2023-05-24T02:44:48.507Z,376.00
2023-05-24T02:45:48.478Z,375.57
2023-05-24T02:46:48.582Z,376.00
2023-05-24T02:47:48.598Z,373.86
2023-05-24T02:48:48.549Z,376.86
2023-05-24T02:49:48.425Z,377.73
2023-05-24T02:50:48.411Z,376.86
2023-05-24T02:51:48.413Z,376.43
2023-05-24T02:52:48.421Z,381.27
2023-05-24T02:53:48.360Z,376.86
2023-05-24T02:54:48.345Z,374.71
2023-05-24T02:55:48.346Z,376.86
2023-05-24T02:56:48.345Z,375.57
2023-05-24T02:57:48.317Z,375.57
2023-05-24T02:58:48.308Z,378.17
2023-05-24T02:59:48.309Z,376.00
2023-05-24T03:00:48.289Z,374.71
2023-05-24T03:01:48.304Z,375.57
2023-05-24T03:02:48.354Z,375.57
2023-05-24T03:03:48.339Z,374.71
2023-05-24T03:04:48.223Z,373.43
2023-05-24T03:05:48.193Z,373.86
2023-05-24T03:06:48.217Z,375.57
2023-05-24T03:07:48.183Z,373.43
2023-05-24T03:08:48.159Z,374.71
2023-05-24T03:09:48.160Z,373.43
2023-05-24T03:10:48.175Z,372.16
2023-05-24T03:11:48.131Z,373.01
2023-05-24T03:12:48.109Z,373.01
2023-05-24T03:13:47.578Z,376.86
2023-05-24T03:14:48.086Z,372.58
2023-05-24T03:15:48.131Z,373.86
2023-05-24T03:16:48.042Z,373.43
2023-05-24T03:17:48.081Z,370.48
2023-05-24T03:18:48.039Z,370.90
2023-05-24T03:19:48.025Z,371.74
2023-05-24T03:20:48.033Z,372.58
2023-05-24T03:21:48.005Z,370.48
2023-05-24T03:22:47.974Z,369.64
2023-05-24T03:23:47.979Z,370.48
2023-05-24T03:24:47.967Z,368.40
2023-05-24T03:25:47.953Z,369.64
2023-05-24T03:26:47.936Z,368.40
2023-05-24T03:27:47.902Z,369.64
2023-05-24T03:28:47.934Z,367.58
2023-05-24T03:29:47.903Z,367.16
2023-05-24T03:30:47.883Z,368.40
2023-05-24T03:31:47.903Z,365.53
2023-05-24T03:32:47.883Z,368.40
2023-05-24T03:33:47.855Z,364.31
2023-05-24T03:34:47.842Z,364.71
2023-05-24T03:35:47.809Z,367.58
2023-05-24T03:36:47.795Z,364.71
2023-05-24T03:37:47.785Z,361.10
2023-05-24T03:38:47.777Z,364.71
2023-05-24T03:39:47.774Z,364.71
2023-05-24T03:40:47.749Z,361.90
2023-05-24T03:41:47.731Z,360.70
2023-05-24T03:42:47.717Z,361.10
2023-05-24T03:43:47.702Z,361.10
2023-05-24T03:44:47.688Z,360.31
2023-05-24T03:45:47.713Z,365.12
2023-05-24T03:46:47.663Z,361.50
2023-05-24T03:47:47.709Z,358.34
2023-05-24T03:48:47.659Z,357.95
2023-05-24T03:49:47.616Z,358.73
2023-05-24T03:50:47.622Z,357.56
2023-05-24T03:51:47.580Z,356.78
2023-05-24T03:52:47.570Z,355.24
2023-05-24T03:53:47.562Z,356.01
2023-05-24T03:54:45.836Z,357.95
2023-05-24T03:55:47.552Z,357.17
2023-05-24T03:56:47.524Z,356.40
2023-05-24T03:57:47.504Z,356.01
2023-05-24T03:58:47.511Z,356.01
2023-05-24T03:59:47.504Z,354.09
2023-05-24T04:00:47.473Z,353.71
2023-05-24T04:01:47.511Z,355.24
2023-05-24T04:02:47.525Z,352.57
2023-05-24T04:03:47.496Z,352.19
2023-05-24T04:04:47.407Z,352.95
2023-05-24T04:05:47.394Z,351.43
2023-05-24T04:06:47.393Z,351.06
2023-05-24T04:07:47.384Z,352.57
2023-05-24T04:08:47.362Z,349.93
2023-05-24T04:09:47.361Z,349.19
2023-05-24T04:10:47.352Z,349.19
2023-05-24T04:11:47.317Z,349.56
2023-05-24T04:12:47.328Z,346.97
2023-05-24T04:13:47.302Z,348.45
2023-05-24T04:14:47.273Z,347.34
2023-05-24T04:15:47.265Z,346.61
2023-05-24T04:16:47.456Z,348.82
2023-05-24T04:17:47.386Z,347.34
2023-05-24T04:18:47.302Z,346.24
2023-05-24T04:19:47.205Z,344.06
2023-05-24T04:20:47.190Z,346.97
2023-05-24T04:21:47.163Z,347.71
2023-05-24T04:22:47.176Z,345.51
2023-05-24T04:23:47.145Z,344.06
2023-05-24T04:24:47.187Z,345.88
2023-05-24T04:25:47.119Z,349.19
2023-05-24T04:26:47.327Z,343.70
2023-05-24T04:27:47.110Z,342.98
2023-05-24T04:28:47.096Z,350.31
2023-05-24T04:29:47.066Z,341.91
2023-05-24T04:30:47.061Z,349.93
2023-05-24T04:31:47.102Z,346.97
2023-05-24T04:32:47.043Z,347.34
2023-05-24T04:33:47.002Z,341.56
2023-05-24T04:34:47.005Z,340.49
2023-05-24T04:35:46.995Z,342.63
2023-05-24T04:36:46.993Z,337.69
2023-05-24T04:37:46.964Z,345.51
2023-05-24T04:38:46.961Z,342.27
2023-05-24T04:39:46.939Z,340.49
2023-05-24T04:40:46.938Z,341.20
2023-05-24T04:41:46.932Z,338.39
2023-05-24T04:42:46.921Z,336.30
2023-05-24T04:43:46.894Z,336.30
2023-05-24T04:44:46.875Z,333.23
2023-05-24T04:45:46.878Z,332.89
2023-05-24T04:46:46.890Z,332.22
2023-05-24T04:47:46.853Z,329.22
2023-05-24T04:48:46.819Z,326.60
2023-05-24T04:49:46.813Z,322.42
2023-05-24T04:50:46.806Z,323.70
2023-05-24T04:51:46.809Z,321.79
2023-05-24T04:52:46.779Z,320.85
2023-05-24T04:53:46.769Z,320.85
2023-05-24T04:54:46.736Z,319.60
2023-05-24T04:55:46.751Z,321.16
2023-05-24T04:56:46.707Z,322.11
2023-05-24T04:57:46.698Z,322.11
2023-05-24T04:58:46.686Z,319.91
2023-05-24T04:59:46.678Z,318.05
2023-05-24T05:00:46.677Z,318.05
2023-05-24T05:01:46.669Z,319.91
2023-05-24T05:02:46.704Z,315.60
2023-05-24T05:03:46.774Z,317.74
2023-05-24T05:04:46.598Z,316.52
2023-05-24T05:05:46.093Z,318.67
2023-05-24T05:06:46.575Z,319.60
2023-05-24T05:07:46.563Z,322.11
2023-05-24T05:08:46.554Z,324.34
2023-05-24T05:09:46.539Z,328.23
2023-05-24T05:10:46.507Z,331.55
2023-05-24T05:11:46.507Z,333.91
2023-05-24T05:12:46.485Z,339.44
2023-05-24T05:13:46.477Z,345.88
2023-05-24T05:14:46.463Z,348.45
2023-05-24T05:15:46.449Z,350.68
2023-05-24T05:16:46.718Z,353.33
2023-05-24T05:17:46.440Z,356.78
2023-05-24T05:18:46.426Z,361.10
2023-05-24T05:19:45.909Z,361.90
2023-05-24T05:20:46.720Z,363.91
2023-05-24T05:21:46.365Z,363.10
2023-05-24T05:22:46.345Z,363.10
2023-05-24T05:23:46.351Z,365.53
2023-05-24T05:24:46.331Z,370.48
2023-05-24T05:25:46.315Z,373.01
2023-05-24T05:26:46.281Z,380.61
2023-05-24T05:27:46.278Z,383.68
2023-05-24T05:28:46.288Z,389.51
2023-05-24T05:29:46.260Z,394.11
2023-05-24T05:30:46.233Z,399.06
2023-05-24T05:31:46.235Z,404.39
2023-05-24T05:32:46.264Z,411.37
2023-05-24T05:33:46.201Z,410.61
2023-05-24T05:34:46.173Z,416.51
2023-05-24T05:35:46.156Z,419.66
2023-05-24T05:36:46.144Z,421.25
2023-05-24T05:37:46.203Z,417.82
2023-05-24T05:38:46.123Z,417.55
2023-05-24T05:39:46.110Z,420.45
2023-05-24T05:40:46.097Z,422.85
2023-05-24T05:41:46.321Z,420.71
2023-05-24T05:42:46.073Z,423.39
2023-05-24T05:43:46.062Z,422.58
2023-05-24T05:44:46.047Z,425.28
2023-05-24T05:45:46.057Z,426.64
2023-05-24T05:46:46.096Z,423.65
2023-05-24T05:47:46.040Z,429.94
2023-05-24T05:48:46.612Z,438.13
2023-05-24T05:49:45.996Z,438.42
2023-05-24T05:50:45.964Z,443.96
2023-05-24T05:51:45.951Z,443.96
2023-05-24T05:52:45.964Z,445.15
2023-05-24T05:53:45.927Z,444.85
2023-05-24T05:54:45.946Z,447.84
2023-05-24T05:55:45.900Z,453.32
2023-05-24T05:56:45.886Z,454.56
2023-05-24T05:57:45.894Z,454.56
2023-05-24T05:58:45.985Z,460.20
2023-05-24T05:59:45.856Z,465.02
2023-05-24T06:00:45.832Z,471.59
2023-05-24T06:01:45.832Z,473.60
2023-05-24T06:02:45.860Z,480.43
2023-05-24T06:03:45.569Z,477.67
2023-05-24T06:04:46.110Z,480.08
2023-05-24T06:05:45.923Z,481.47
2023-05-24T06:06:44.983Z,482.86
2023-05-24T06:07:45.737Z,491.40
2023-05-24T06:08:45.719Z,491.04
2023-05-24T06:09:45.699Z,500.25
2023-05-24T06:10:45.699Z,502.13
2023-05-24T06:11:45.718Z,506.71
2023-05-24T06:12:45.663Z,506.71
2023-05-24T06:13:45.656Z,511.38
2023-05-24T06:14:45.627Z,510.59
2023-05-24T06:15:45.653Z,515.33
2023-05-24T06:16:44.728Z,518.94
2023-05-24T06:17:45.622Z,521.37
2023-05-24T06:18:57.089Z,527.98
2023-05-24T06:19:46.564Z,541.26
2023-05-24T06:20:46.025Z,550.65
2023-05-24T06:21:45.066Z,557.09
2023-05-24T06:22:45.513Z,565.11
2023-05-24T06:23:45.525Z,578.85
2023-05-24T06:24:45.493Z,584.94
2023-05-24T06:25:45.722Z,597.52
2023-05-24T06:26:45.468Z,606.76
2023-05-24T06:27:45.458Z,609.54
2023-05-24T06:28:45.468Z,616.30
2023-05-24T06:29:45.451Z,622.63
2023-05-24T06:30:45.702Z,626.72
2023-05-24T06:31:45.429Z,633.27
2023-05-24T06:32:45.420Z,636.90
2023-05-24T06:33:52.496Z,643.04
2023-05-24T06:34:46.380Z,639.34
2023-05-24T06:35:45.355Z,648.67
2023-05-24T06:36:45.335Z,649.93
2023-05-24T06:37:45.319Z,661.54
2023-05-24T06:38:45.302Z,662.20
2023-05-24T06:39:45.301Z,677.68
2023-05-24T06:40:45.276Z,689.59
2023-05-24T06:41:45.257Z,696.07
2023-05-24T06:42:45.264Z,702.67
2023-05-24T06:43:45.239Z,707.14
2023-05-24T06:44:45.224Z,709.40
2023-05-24T06:45:45.210Z,714.72
2023-05-24T06:46:45.208Z,717.80
2023-05-24T06:47:45.247Z,721.68
2023-05-24T06:48:45.372Z,722.46
2023-05-24T06:49:45.185Z,724.82
2023-05-24T06:50:45.283Z,730.38
2023-05-24T06:51:44.389Z,731.18
2023-05-24T06:52:45.117Z,728.78
2023-05-24T06:53:45.122Z,740.10
2023-05-24T06:54:45.088Z,747.90
2023-05-24T06:55:45.082Z,752.11
2023-05-24T06:56:45.063Z,760.68
2023-05-24T06:57:45.054Z,765.92
2023-05-24T06:58:45.057Z,774.36
2023-05-24T06:59:45.058Z,790.88
2023-05-24T07:00:45.315Z,800.84
2023-05-24T07:01:45.173Z,806.16
2023-05-24T07:02:45.053Z,812.04
2023-05-24T07:03:44.970Z,819.02
2023-05-24T07:04:44.962Z,825.60
2023-05-24T07:05:44.936Z,835.94
2023-05-24T07:06:44.992Z,846.54
2023-05-24T07:07:44.448Z,868.01
2023-05-24T07:08:44.918Z,873.69
2023-05-24T07:09:44.896Z,891.19
2023-05-24T07:10:45.086Z,898.99
2023-05-24T07:11:44.920Z,907.55
2023-05-24T07:12:44.858Z,912.51
2023-05-24T07:13:44.842Z,913.13
2023-05-24T07:14:44.938Z,934.87
2023-05-24T07:15:44.810Z,929.02
2023-05-24T07:16:44.858Z,943.46
2023-05-24T07:17:44.817Z,965.99
2023-05-24T07:18:44.781Z,978.74
2023-05-24T07:19:44.767Z,997.01
2023-05-24T07:20:45.402Z,1000.00
2023-05-24T07:21:44.724Z,1013.67
2023-05-24T07:22:44.742Z,1015.21
2023-05-24T07:23:44.689Z,1027.71
2023-05-24T07:24:44.691Z,1029.30
2023-05-24T07:25:44.667Z,1051.18
2023-05-24T07:26:44.682Z,1042.97
2023-05-24T07:27:44.668Z,1047.88
2023-05-24T07:28:44.628Z,1044.60
2023-05-24T07:29:46.944Z,1062.05
2023-05-24T07:30:44.623Z,1062.90
2023-05-24T07:31:44.653Z,1087.13
2023-05-24T07:32:44.706Z,1096.96
2023-05-24T07:33:44.560Z,1128.49
2023-05-24T07:34:44.541Z,1132.32
2023-05-24T07:35:44.525Z,1142.98
2023-05-24T07:36:44.550Z,1122.79
2023-05-24T07:37:44.500Z,1160.87
2023-05-24T07:38:44.539Z,1149.87
2023-05-24T07:39:44.490Z,1156.85
2023-05-24T07:40:44.676Z,1156.85
2023-05-24T07:41:44.470Z,1167.98
2023-05-24T07:42:44.432Z,1169.00
2023-05-24T07:43:44.449Z,1163.91
2023-05-24T07:44:44.398Z,1159.86
2023-05-24T07:45:44.529Z,1171.05
2023-05-24T07:46:44.468Z,1166.96
2023-05-24T07:47:44.405Z,1177.25
2023-05-24T07:48:44.348Z,1187.72
2023-05-24T07:49:44.350Z,1200.54
2023-05-24T07:50:44.472Z,1210.33
2023-05-24T07:51:44.335Z,1221.41
2023-05-24T07:52:44.299Z,1239.55
2023-05-24T07:53:44.290Z,1247.66
2023-05-24T07:54:44.290Z,1237.26
2023-05-24T07:55:44.451Z,1236.11
2023-05-24T07:56:44.253Z,1267.81
2023-05-24T07:57:44.254Z,1264.20
2023-05-24T07:58:44.224Z,1273.85
2023-05-24T07:59:44.229Z,1308.82
2023-05-24T08:00:42.310Z,1315.27
2023-05-24T08:01:44.192Z,1323.09
2023-05-24T08:02:44.348Z,1360.86
2023-05-24T08:03:44.326Z,1380.56
2023-05-24T08:04:44.155Z,1402.31
2023-05-24T08:05:44.333Z,1421.72
2023-05-24T08:06:44.151Z,1435.48
2023-05-24T08:07:44.135Z,1443.24
2023-05-24T08:08:44.130Z,1476.77
2023-05-24T08:09:44.097Z,1483.33
2023-05-24T08:10:44.082Z,1480.04
2023-05-24T08:11:44.083Z,1493.29
2023-05-24T08:12:44.038Z,1511.89
2023-05-24T08:13:44.047Z,1506.77
2023-05-24T08:14:44.049Z,1538.02
2023-05-24T08:15:44.287Z,1543.35
2023-05-24T08:16:44.091Z,1549.62
2023-05-24T08:17:43.997Z,1561.40
2023-05-24T08:18:43.977Z,1573.36
2023-05-24T08:19:43.946Z,1583.63
2023-05-24T08:20:43.977Z,1593.08
2023-05-24T08:21:43.919Z,1607.46
2023-05-24T08:22:43.978Z,1628.05
2023-05-24T08:23:43.916Z,1635.03
2023-05-24T08:24:43.871Z,1644.09
2023-05-24T08:25:44.175Z,1661.48
2023-05-24T08:26:43.871Z,1666.67
2023-05-24T08:27:43.908Z,1681.36
2023-05-24T08:28:43.861Z,1693.09
2023-05-24T08:29:43.830Z,1704.98
2023-05-24T08:30:43.816Z,1703.89
2023-05-24T08:31:43.890Z,1721.47
2023-05-24T08:32:43.833Z,1714.84
2023-05-24T08:33:43.758Z,1711.54
2023-05-24T08:34:43.799Z,1695.24
2023-05-24T08:35:43.996Z,1683.48
2023-05-24T08:36:43.731Z,1695.24
2023-05-24T08:37:43.729Z,1715.94
2023-05-24T08:38:43.691Z,1733.77
2023-05-24T08:39:43.680Z,1757.73
2023-05-24T08:40:43.737Z,1732.64
2023-05-24T08:41:47.399Z,1776.45
2023-05-24T08:42:44.680Z,1772.91
2023-05-24T08:43:43.623Z,1777.63
2023-05-24T08:44:43.603Z,1772.91
2023-05-24T08:45:43.868Z,1793.15
2023-05-24T08:46:43.659Z,1811.40
2023-05-24T08:47:43.659Z,1827.52
2023-05-24T08:48:43.597Z,1821.28
2023-05-24T08:49:43.548Z,1758.89
2023-05-24T08:50:43.546Z,1720.36
2023-05-24T08:51:43.550Z,1737.15
2023-05-24T08:52:43.519Z,1768.21
2023-05-24T08:53:43.516Z,1799.19
2023-05-24T08:54:43.501Z,1815.09
2023-05-24T08:55:43.881Z,1841.38
2023-05-24T08:56:43.484Z,1828.77
2023-05-24T08:57:43.460Z,1860.63
2023-05-24T08:58:43.451Z,1856.74
2023-05-24T08:59:43.446Z,1884.26
2023-05-24T09:00:43.424Z,1886.93
2023-05-24T09:01:43.402Z,1892.28
2023-05-24T09:02:43.492Z,1908.51
2023-05-24T09:03:43.439Z,1920.86
2023-05-24T09:04:43.388Z,1929.19
2023-05-24T09:05:43.616Z,1958.91
2023-05-24T09:06:43.329Z,1971.94
2023-05-24T09:07:43.316Z,1991.05
2023-05-24T09:08:43.998Z,1988.09
2023-05-24T09:09:43.345Z,2001.50
2023-05-24T09:10:53.995Z,2041.28
2023-05-24T09:11:44.287Z,2053.85
2023-05-24T09:12:43.285Z,2084.31
2023-05-24T09:13:43.240Z,2099.06
2023-05-24T09:14:43.280Z,2137.71
2023-05-24T09:15:43.472Z,2183.16
2023-05-24T09:16:43.282Z,2221.30
2023-05-24T09:17:43.252Z,2221.30
2023-05-24T09:18:43.242Z,2278.16
2023-05-24T09:19:43.196Z,2327.81
2023-05-24T09:20:43.377Z,2356.57
2023-05-24T09:21:43.151Z,2377.56
2023-05-24T09:22:43.176Z,2396.77
2023-05-24T09:23:43.155Z,2429.48
2023-05-24T09:24:43.115Z,2449.54
2023-05-24T09:25:43.102Z,2431.69
2023-05-24T09:26:43.080Z,2445.05
2023-05-24T09:27:43.067Z,2411.92
2023-05-24T09:28:43.064Z,2438.36
2023-05-24T09:29:43.049Z,2451.79
2023-05-24T09:30:43.153Z,2433.91
2023-05-24T09:31:43.103Z,2449.54
2023-05-24T09:32:43.019Z,2465.37
2023-05-24T09:33:43.005Z,2454.04
2023-05-24T09:34:43.012Z,2467.65
2023-05-24T09:35:43.015Z,2445.05
2023-05-24T09:36:43.011Z,2440.58
2023-05-24T09:37:42.945Z,2476.81
2023-05-24T09:38:42.947Z,2469.94
2023-05-24T09:39:42.918Z,2460.83
2023-05-24T09:40:43.073Z,2465.37
2023-05-24T09:41:42.901Z,2465.37
2023-05-24T09:42:42.865Z,2454.04
2023-05-24T09:43:42.873Z,2445.05
2023-05-24T09:44:42.848Z,2438.36
2023-05-24T09:45:42.869Z,2449.54
2023-05-24T09:46:42.856Z,2458.56
2023-05-24T09:47:42.862Z,2460.83
2023-05-24T09:48:42.814Z,2481.41
2023-05-24T09:49:42.793Z,2514.12
2023-05-24T09:50:42.940Z,2545.28
2023-05-24T09:51:42.816Z,2542.86
2023-05-24T09:52:42.257Z,2516.49
2023-05-24T09:53:42.745Z,2533.21
2023-05-24T09:54:42.738Z,2500.00
2023-05-24T09:55:42.701Z,2454.04
2023-05-24T09:56:42.724Z,2456.30
2023-05-24T09:57:42.700Z,2526.02
2023-05-24T09:58:42.706Z,2493.00
2023-05-24T09:59:42.653Z,2530.81
2023-05-24T10:00:43.262Z,2504.69
2023-05-24T10:01:42.732Z,2497.66
2023-05-24T10:02:52.306Z,2509.40
2023-05-24T10:03:43.260Z,2483.72
2023-05-24T10:04:42.663Z,2514.12
2023-05-24T10:05:42.572Z,2516.49
2023-05-24T10:06:42.581Z,2533.21
2023-05-24T10:07:40.625Z,2567.31
2023-05-24T10:08:42.541Z,2589.72
2023-05-24T10:09:42.532Z,2584.71
2023-05-24T10:10:43.014Z,2562.38
2023-05-24T10:11:42.586Z,2599.80
2023-05-24T10:12:42.509Z,2638.34
2023-05-24T10:13:42.504Z,2667.33
2023-05-24T10:14:42.461Z,2696.97
2023-05-24T10:15:42.529Z,2699.70
2023-05-24T10:16:42.570Z,2705.17
2023-05-24T10:17:42.522Z,2680.72
2023-05-24T10:18:42.438Z,2718.94
2023-05-24T10:19:42.413Z,2758.26
2023-05-24T10:20:42.759Z,2772.59
2023-05-24T10:21:42.453Z,2761.12
2023-05-24T10:22:42.377Z,2775.47
2023-05-24T10:23:42.365Z,2772.59
2023-05-24T10:24:42.357Z,2775.47
2023-05-24T10:25:42.356Z,2775.47
2023-05-24T10:26:42.358Z,2749.74
2023-05-24T10:27:42.309Z,2718.94
2023-05-24T10:28:42.309Z,2691.53
2023-05-24T10:29:42.283Z,2707.91
2023-05-24T10:30:42.730Z,2680.72
2023-05-24T10:31:42.426Z,2735.66
2023-05-24T10:32:42.263Z,2735.66
2023-05-24T10:33:42.264Z,2696.97
2023-05-24T10:34:42.238Z,2678.03
2023-05-24T10:35:42.242Z,2696.97
2023-05-24T10:36:42.203Z,2667.33
2023-05-24T10:37:42.176Z,2683.42
2023-05-24T10:38:42.180Z,2691.53
2023-05-24T10:39:42.164Z,2721.71
2023-05-24T10:40:42.215Z,2678.03
2023-05-24T10:41:42.311Z,2755.42
2023-05-24T10:42:42.164Z,2752.58
2023-05-24T10:43:42.433Z,2766.84
2023-05-24T10:44:42.117Z,2789.97
2023-05-24T10:45:42.396Z,2775.47
2023-05-24T10:46:42.103Z,2766.84
2023-05-24T10:47:42.104Z,2758.26
2023-05-24T10:48:42.084Z,2724.49
2023-05-24T10:49:42.062Z,2699.70
2023-05-24T10:50:42.504Z,2707.91
2023-05-24T10:51:42.127Z,2730.06
2023-05-24T10:52:42.043Z,2766.84
2023-05-24T10:53:42.009Z,2784.15
2023-05-24T10:54:49.601Z,2752.58
2023-05-24T10:55:42.946Z,2761.12
2023-05-24T10:56:41.960Z,2735.66
2023-05-24T10:57:40.026Z,2732.86
2023-05-24T10:58:41.960Z,2702.43
2023-05-24T10:59:41.940Z,2718.94
2023-05-24T11:00:41.918Z,2702.43
2023-05-24T11:01:41.913Z,2735.66
2023-05-24T11:02:41.907Z,2741.27
2023-05-24T11:03:41.898Z,2769.71
2023-05-24T11:04:41.873Z,2837.41
2023-05-24T11:05:43.176Z,2807.57
2023-05-24T11:06:41.844Z,2810.53
2023-05-24T11:07:42.115Z,2828.39
2023-05-24T11:08:41.801Z,2772.59
2023-05-24T11:09:41.923Z,2828.39
2023-05-24T11:10:42.921Z,2852.56
2023-05-24T11:11:41.810Z,2870.97
2023-05-24T11:12:41.750Z,2940.53
2023-05-24T11:13:41.784Z,2956.81
2023-05-24T11:14:41.738Z,2947.02
2023-05-24T11:15:41.721Z,2937.29
2023-05-24T11:16:41.735Z,3010.15
2023-05-24T11:17:43.586Z,2934.07
2023-05-24T11:18:41.693Z,2950.28
2023-05-24T11:19:41.669Z,2918.03
2023-05-24T11:20:41.969Z,2930.84
2023-05-24T11:21:41.637Z,2899.02
2023-05-24T11:22:41.654Z,2895.88
2023-05-24T11:23:41.659Z,2867.88
2023-05-24T11:24:41.628Z,2921.23
2023-05-24T11:25:41.080Z,2969.97
2023-05-24T11:26:41.579Z,2991.60
2023-05-24T11:27:41.581Z,3022.07
2023-05-24T11:28:41.622Z,2993.27
2023-05-24T11:29:41.558Z,3005.06
2023-05-24T11:30:41.731Z,3041.00
2023-05-24T11:31:44.081Z,3061.93
2023-05-24T11:32:41.517Z,3035.82
2023-05-24T11:33:41.532Z,3060.17
2023-05-24T11:34:42.418Z,3065.44
2023-05-24T11:35:39.640Z,3086.71
2023-05-24T11:36:41.478Z,3032.37
2023-05-24T11:38:41.425Z,2988.25
2023-05-24T11:39:41.417Z,2943.77
2023-05-24T11:40:41.612Z,2947.02
2023-05-24T11:41:41.391Z,2963.37
2023-05-24T11:42:42.330Z,2927.63
2023-05-24T11:43:41.343Z,2927.63
2023-05-24T11:44:41.344Z,2905.33
2023-05-24T11:45:41.367Z,2870.97
2023-05-24T11:46:41.323Z,2804.62
2023-05-24T11:47:41.363Z,2804.62
2023-05-24T11:48:42.255Z,2755.42
2023-05-24T11:49:41.308Z,2732.86
2023-05-24T11:50:49.269Z,2744.09
2023-05-24T11:51:42.399Z,2758.26
2023-05-24T11:52:41.618Z,2746.91
2023-05-24T11:53:41.237Z,2732.86
2023-05-24T11:54:41.262Z,2721.71
2023-05-24T11:55:41.414Z,2710.66
2023-05-24T11:56:41.216Z,2699.70
2023-05-24T11:57:41.212Z,2664.67
2023-05-24T11:58:41.163Z,2678.03
2023-05-24T11:59:41.184Z,2664.67
2023-05-24T12:00:41.376Z,2672.67
2023-05-24T12:01:41.181Z,2696.97
2023-05-24T12:02:41.167Z,2691.53
2023-05-24T12:03:41.219Z,2696.97
2023-05-24T12:04:41.132Z,2727.27
2023-05-24T12:05:41.081Z,2735.66
2023-05-24T12:06:41.095Z,2710.66
2023-05-24T12:07:41.050Z,2727.27
2023-05-24T12:08:41.252Z,2755.42
2023-05-24T12:09:41.050Z,2763.98
2023-05-24T12:10:41.194Z,2741.27
2023-05-24T12:11:40.977Z,2732.86
2023-05-24T12:12:45.775Z,2721.71
2023-05-24T12:13:42.035Z,2724.49
2023-05-24T12:14:41.027Z,2718.94
2023-05-24T12:15:41.016Z,2707.91
2023-05-24T12:16:41.002Z,2718.94
2023-05-24T12:17:40.918Z,2724.49
2023-05-24T12:18:55.169Z,2730.06
2023-05-24T12:19:41.897Z,2730.06
2023-05-24T12:20:41.098Z,2741.27